空港情報

日本の空港の気象及び、管制情報です。
気象情報はより詳細な情報が取得できる「AVIATION WEATER CENTER」 から取得しているため、VATSIMの気象情報と若干のタイムラグが生じることがあります。

VRCのフィールド設定用空港一覧はこちらをご覧ください。

RJCG Sapporo Control

RJCW / Wakkanai
IMC

NO RADAR

RADIO

08/26 2200x45

民間 civil

7000

210@16KT

29.50

RJCW 210900Z 21016KT 7000 -SHRA FEW003 SCT005 BKN007 13/12 Q0999

RJER / Rishiri

NO RADAR

REMOTE

25/07 1800x45

民間 civil

過去5時間に発表されたMETARがありません。

RJEB / Monbetsu

NO RADAR

REMOTE

32/14 2000x45

民間 civil

過去5時間に発表されたMETARがありません。

RJCM / Memanbetsu
VMC

NO RADAR

TOWER

36/18 2500x45

民間 civil

9999

160@15KT

29.56

RJCM 211100Z 16015KT 9999 -SHRA FEW015 SCT060 BKN110 17/12 Q1001

RJEC / Asahikawa
VMC

NO RADAR

TOWER

34/16 2500x60

民間 civil

8000

180@9KT

29.59

RJEC 211120Z 18009KT 8000 -SHRA FEW007 SCT035 BKN050 14/13 Q1002 RMK 1ST007 4CU035 5CU050 A2959

RJCN / Nakashibetsu
IMC

NO RADAR

RADIO

08/26 2000x45

民間 civil

4000

180@14KT

29.68

RJCN 210900Z 18014KT 140V210 4000 -SHRA BR FEW005 SCT007 BKN009 14/13 Q1005

RJCK / Kushiro
IMC

NO RADAR

TOWER

17/35 2500x45

民間 civil

0400

170@23KT

29.62

RJCK 211148Z 17023KT 0400 R17/1000V1500U FG SHRA VV001 10/10 Q1003 RMK A2964

RJCO / Sapporo
VMC

RJCO_APP

TOWER

14/32 1500x30

共用 dual

8000

150@5KT

29.62

RJCO 211200Z 15005KT 8000 FEW005 SCT007 BKN010 12/12 Q1003

RJCJ / Chitose

RJCC_APP

TOWER

36R/18L 3000x60
36L/18R 2700x45

自衛隊 military

過去5時間に発表されたMETARがありません。

RJCC / NewChitose
IMC

RJCC_APP

TOWER

01L/19R 3000x60
01R/19L 3000x60

民間 civil

3200

170@8KT

29.59

RJCC 211200Z 17008KT 3200 BR FEW002 BKN005 BKN007 12/11 Q1002 RMK 2ST002 5ST005 7ST007 A2961

RJCB / Obihiro
IMC

NO RADAR

TOWER

35/17 2500x45

民間 civil

8000

160@21KT

29.56

RJCB 211100Z 16021KT 8000 -SHRA FEW004 BKN006 14/13 Q1001

RJEO / Okushiri

NO RADAR

REMOTE

12/30 1500x45

民間 civil

過去5時間に発表されたMETARがありません。

RJCH / Hakodate
VMC

RJCH_APP

TOWER

12/30 3000x45

民間 civil

9999

240@13KT

29.59

RJCH 211100Z 24013KT 9999 FEW015 SCT035 14/13 Q1002

RJSA / Aomori
VMC

NO RADAR

TOWER

24/06 3000x60

民間 civil

9999

210@12KT

29.65

RJSA 211200Z 21012KT 9999 FEW020 BKN/// 13/10 Q1004

RJSO / Ominato

RJSM_APP

TOWER

04/22 600x45

自衛隊 military

過去5時間に発表されたMETARがありません。

RJSM / Misawa
VMC

RJSM_APP

TOWER

10/28 3050x45

共用 dual

9999

170@3KT

29.62

RJSM 211200Z 17003KT 140V240 9999 FEW003 SCT100 BKN/// 16/10 Q1003

RJSH / Hachinohe
VMC

RJSM_APP

TOWER

25/07 2250x45

自衛隊 military

5000

270@12KT

29.56

RJSH 210738Z 27012KT 5000 -SHRA BR SCT010 OVC020 16/15 Q1001 RMK 4ST010 8CU020 A2959

RJSK / Akita
VMC

NO RADAR

TOWER

10/28 2500x60

民間 civil

9999

230@4KT

29.70

RJSK 211200Z 23004KT 170V270 9999 FEW015 SCT020 BKN/// 15/13 Q1006

RJSI / Hanamaki
VMC

NO RADAR

RADIO

20/02 2500x45

民間 civil

9999

320@4KT

29.65

RJSI 211000Z 32004KT 280V360 9999 FEW015 SCT030 BKN080 16/11 Q1004

RJSR / Odate-Noshiro
VMC

NO RADAR

REMOTE

11/29 2000x45

民間 civil

9999

200@5KT

29.65

RJSR 211000Z 20005KT 9999 FEW015 SCT020 BKN/// 14/14 Q1004

RJTG Tokyo Control

RJSY / Shonai
VMC

NO RADAR

RADIO

09/27 2000x45

民間 civil

9999

260@9KT

29.70

RJSY 211200Z 26009KT 9999 FEW020 BKN/// 16/12 Q1006

RJSC / Yamagata
VMC

NO RADAR

RADIO

01/19 2000x45

民間 civil

9999

010@4KT

29.65

RJSC 211000Z 01004KT 9999 FEW010 SCT020 BKN040 17/13 Q1004

RJST / Matsushima

RJSS_APP

TOWER

07/25 2071x46
15/33 1500x46

自衛隊 military

過去5時間に発表されたMETARがありません。

RJSS / Sendai
VMC

RJSS_APP

TOWER

27/09 3000x45
12/30 1200x45

民間 civil

6000

000@1KT

29.65

RJSS 211200Z VRB01KT 6000 R27/P2000N PRFG FEW001 BKN040 15/14 Q1004

RJSD / Sado
VMC

NO RADAR

REMOTE

10/28 890x25

民間 civil

9999

000@2KT

29.70

RJSD 211200Z AUTO VRB02KT 9999 NCD 14/12 Q1006

RJSN / Niigata
VMC

RJSN_APP

TOWER

10/28 2500x45
04/22 1314x45

民間 civil

9999

240@5KT

29.70

RJSN 211200Z 24005KT 9999 FEW025 BKN/// 17/13 Q1006

RJSF / Fukushima
VMC

NO RADAR

RADIO

01/19 2500x60

民間 civil

9999

360@11KT

29.65

RJSF 211100Z 36011KT 9999 FEW010 BKN040 15/07 Q1004

RJAH / Ibaraki/Hyakuri
IMC

RJAH_APP

TOWER

03L/21R 2700x45
03R/21L 2700x45

共用 dual

6000

360@8KT

29.62

RJAH 211200Z 36008KT 6000 -SHRA FEW005 BKN008 OVC015 14/14 Q1003

RJTT / Tokyo
VMC

RJTT_APP

TOWER

34LR/16RL 3000x60
04/22&05/23 2500x60

民間 civil

9999

020@9KT

29.59

RJTT 211209Z 02009KT 9999 FEW007 BKN010 BKN025 20/19 Q1002 RMK 1ST007 6ST010 7CU025 A2960

RJAA / Narita
IMC

RJTT_APP

TOWER

34L/16R 4000x60
34R/16L 2500x60

民間 civil

4000

350@10KT

29.59

RJAA 211215Z 35010KT 4000 -SHRA BR FEW002 BKN004 BKN006 18/17 Q1002 RMK 1ST002 5ST004 6ST006 A2961

RJTL / Shimofusa
VMC

RJTT_APP

TOWER

19/01 2250x45

自衛隊 military

9999

360@5KT

29.59

RJTL 211147Z 36005KT 320V030 9999 -SHRA FEW003 SCT006 BKN015 18/17 Q1002 RMK 1ST003 4ST006 7CU015 A2960

RJTE / Tateyama
VMC

RJTT_APP

TOWER

09/27 300x45

自衛隊 military

9999

200@10G21KT

29.53

RJTE 210848Z 20010G21KT 150V240 9999 FEW008 SCT012 BKN050 20/19 Q1000 RMK 2ST008 4CU012 5SC050 A2955

RJTO / Oshima
VMC

NO RADAR

RADIO

03/21 1800x45

民間 civil

9999

200@13KT

29.53

RJTO 210800Z 20013KT 9999 FEW007 SCT015 BKN030 19/18 Q1000

RJTK / Kisarazu
VMC

NO RADAR

TOWER

02/20 1830x45

自衛隊 military

9999

200@7KT

29.56

RJTK 211103Z 20007KT 9999 FEW008 BKN010 BKN230 20/19 Q1001 RMK 1ST008 5ST010 6CI230 A2958

RJAN / Niijima

NO RADAR

REMOTE

11/29 800x25

自衛隊 military

過去5時間に発表されたMETARがありません。

RJAZ / Kozushima

NO RADAR

REMOTE

11/29 800x25

民間 civil

過去5時間に発表されたMETARがありません。

RJTH / Hachijojima

NO RADAR

RADIO

26/08 2000x45

民間 civil

過去5時間に発表されたMETARがありません。

RJTF / Chofu
VMC

NO RADAR

Flight Service

35/17 800x30

民間 civil

9999

350@4KT

29.53

RJTF 210800Z 35004KT 310V030 9999 FEW015 BKN030 BKN060 20/19 Q1000

RJTQ / Miyake

NO RADAR

REMOTE

02/20 1200x30

民間 civil

過去5時間に発表されたMETARがありません。

RJTC / Tachikawa
VMC

NO RADAR

TOWER

01/19 900x45

自衛隊 military

9999

070@4KT

29.53

RJTC 210734Z 07004KT 040V110 9999 FEW006 SCT008 BKN025 20/17 Q1000 RMK 1ST006 4ST008 6CU025 A2955

RJTA / Atsugi

NO RADAR

TOWER

01/19 2438x45

自衛隊 military

過去5時間に発表されたMETARがありません。

RJTU / Utsunomiya

RJTY_APP

TOWER

01/19 1700x45

自衛隊 military

過去5時間に発表されたMETARがありません。

RJTJ / Iruma

RJTY_APP

TOWER

17/35 2000x45

自衛隊 military

過去5時間に発表されたMETARがありません。

RJTY / Yokota
VMC

RJTY_APP

TOWER

18/36 3353x60

自衛隊 military

9999

010@9KT

29.67

RJTY 211211Z AUTO 01009KT 10SM FEW009 OVC021 17/16 A2967 RMK AO2 CIG 019 RWY18 SLP048 FZRANO $

RJAF / Matsumoto

NO RADAR

RADIO

18/36 2000x45

民間 civil

過去5時間に発表されたMETARがありません。

RJNS / Shizuoka
IMC

NO RADAR

RADIO

30/12 2500x60

民間 civil

9999

030@3KT

29.59

RJNS 211200Z 03003KT 340V080 9999 FEW004 BKN006 18/18 Q1002

RJNY / Yaizu-Shizuhama

NO RADAR

TOWER

27/09 1500x45

自衛隊 military

過去5時間に発表されたMETARがありません。

RJNH / Hamamatsu

RJNH_APP

TOWER

09/27 2550x60

自衛隊 military

過去5時間に発表されたMETARがありません。

RJGG / Chubu
VMC

RJGG_APP

TOWER

36/18 3500x60

民間 civil

9999

320@18KT

29.62

RJGG 211200Z 32018KT 9999 FEW020 SCT/// 19/09 Q1003 NOSIG

RJNA / Nagoya

RJGG_APP

TOWER

34/16 2740x45

民間 civil

過去5時間に発表されたMETARがありません。

RJNG / Gifu

RJGG_APP

TOWER

28/10 2710x46

自衛隊 military

過去5時間に発表されたMETARがありません。

RJOE / Akeno

RJOE_APP

TOWER

13/31 500x30
04/22 500x30

自衛隊 military

過去5時間に発表されたMETARがありません。

RJNK / Komatsu
VMC

RJNK_APP

TOWER

06/24 2700x45

共用 dual

9999

160@5KT

29.73

RJNK 211200Z 16005KT 9999 FEW180 SCT/// 16/10 Q1007

RJNW / Noto
VMC

NO RADAR

RADIO

25/07 2000x45

民間 civil

9999

260@7KT

29.70

RJNW 211000Z 26007KT 9999 FEW030 SCT/// 14/10 Q1006

RJNT / Toyama
VMC

NO RADAR

TOWER

20/02 2000x45

民間 civil

9999

000@1KT

29.73

RJNT 211200Z VRB01KT CAVOK 16/11 Q1007

RJNF / Fukui

NO RADAR

REMOTE

18/36 1200x30

民間 civil

過去5時間に発表されたMETARがありません。

RJBD / Nanki-Shirahama
VMC

NO RADAR

RADIO

15/33 2000x45

民間 civil

9999

320@11KT

29.59

RJBD 211000Z 32011KT 9999 FEW040 20/13 Q1002

RJOY / Yao
VMC

RJBB_APP

TOWER

27/09 1490x45
13/31 1200x30

民間 civil

9999

010@10KT

29.62

RJOY 211000Z 01010KT 9999 FEW030 22/08 Q1003

RJOO / Osaka
VMC

RJBB_APP

TOWER

32L/14R 3000x60
32R/14L 1830x45

民間 civil

9999

320@10KT

29.68

RJOO 211100Z 32010KT 9999 FEW030 SCT/// 20/08 Q1005 RMK 1CU030 A2968

RJOB / Okayama
VMC

RJBB_APP

TOWER

07/25 3000x45

民間 civil

9999

330@4KT

29.70

RJOB 211200Z 33004KT 300V010 9999 FEW030 17/08 Q1006

RJBB / Kansai
VMC

RJBB_APP

TOWER

06R/24L 3500x60
06L/24R 4000x60

民間 civil

9999

040@9KT

29.68

RJBB 211200Z 04009KT 9999 FEW040 BKN/// 20/11 Q1005 NOSIG

RJBE / Kobe
VMC

RJBB_APP

TOWER

09/27 2500x60

民間 civil

9999

040@5KT

29.68

RJBE 211200Z 04005KT CAVOK 21/05 Q1005

RJBT / Tajima
VMC

NO RADAR

REMOTE

01/19 1200x30

民間 civil

9999

360@4KT

29.68

RJBT 210900Z 36004KT 9999 FEW040 BKN/// 18/06 Q1005

RJOR / Tottori
VMC

NO RADAR

RADIO

10/28 2000x45

民間 civil

9999

180@4KT

29.73

RJOR 211200Z 18004KT CAVOK 16/13 Q1007

RJNO / Oki

NO RADAR

REMOTE

07/25 2000x45

民間 civil

過去5時間に発表されたMETARがありません。

RJOH / Miho
VMC

RJOH_APP

TOWER

25/07 2500x45

共用 dual

9999

250@10KT

29.70

RJOH 211200Z 25010KT 9999 NSC 17/08 Q1006

RJOC / Izumo
VMC

RJOH_APP

RADIO

07/25 2000x45

共用 dual

9999

230@7KT

29.70

RJOC 211100Z 23007KT CAVOK 17/10 Q1006

RJDG Fukuoka Control

RJOT / Takamatsu
VMC

RJBB_APP

TOWER

26/08 2500x60

民間 civil

9999

250@5KT

29.70

RJOT 211200Z 25005KT 9999 FEW030 SCT060 16/10 Q1006

RJOK / Kochi
VMC

RJBB_APP

TOWER

32/14 2500x45

民間 civil

9999

360@2KT

29.65

RJOK 211100Z 36002KT CAVOK 19/14 Q1004

RJOS / Tokushima
VMC

RJOS_APP

TOWER

29/11 2500x45

共用 dual

9999

340@12KT

29.68

RJOS 211200Z 34012KT 9999 FEW030 BKN/// 21/09 Q1005

RJOA / Hiroshima
VMC

RJOA_APP

TOWER

10/28 3000x60

民間 civil

9999

300@5KT

29.73

RJOA 211200Z 30005KT 270V350 9999 FEW025 17/02 Q1007

RJBH / Hiroshimanishi

NO RADAR

Flight Service

04/22 1800x45

民間 civil

過去5時間に発表されたMETARがありません。

RJOI / Iwakuni
VMC

RJOI_APP

TOWER

02/20 2440x60

共用 dual

9999

300@6KT

29.73

RJOI 211155Z 30006KT 9999 FEW030 FEW250 19/06 A2973 RMK SLP068 T01890056 10239 20189 51024

RJOM / Matsuyama
VMC

RJOI_APP

TOWER

14/32 2500x45

民間 civil

9999

130@7KT

29.70

RJOM 211200Z 13007KT CAVOK 17/11 Q1006

RJOZ / Ozuki

RJFZ_APP

TOWER

35/17 1201x61
12/30 899x46

自衛隊 military

過去5時間に発表されたMETARがありません。

RJOF / Hofu

RJFZ_APP

TOWER

30/12 1180x60
01/19 1480x45

自衛隊 military

過去5時間に発表されたMETARがありません。

RJDC / Yamaguchi-Ube
VMC

RJFZ_APP

RADIO

07/25 2500x45

民間 civil

9999

290@4KT

29.73

RJDC 211200Z 29004KT 250V320 CAVOK 17/09 Q1007

RJFR / Kitakyushu
VMC

RJFZ_APP

TOWER

18/36 2500x60

民間 civil

9999

260@11KT

29.73

RJFR 211200Z 26011KT CAVOK 18/08 Q1007

RJFZ / Tsuiki

RJFZ_APP

TOWER

25/07 2399x46

自衛隊 military

過去5時間に発表されたMETARがありません。

RJOW / Iwami
VMC

NO RADAR

REMOTE

11/29 2000x45

民間 civil

9999

250@6KT

29.70

RJOW 211000Z 25006KT CAVOK 18/08 Q1006

RJDT / Tsushima
VMC

NO RADAR

REMOTE

32/14 1900x45

民間 civil

9999

000@2KT

29.70

RJDT 211100Z VRB02KT CAVOK 18/10 Q1006

RJFF / Fukuoka
VMC

RJFF_APP

TOWER

16/34 2800x60

民間 civil

9999

190@5KT

29.76

RJFF 211200Z 19005KT 160V230 CAVOK 19/08 Q1008 NOSIG RMK A2977

RJFS / Saga
VMC

RJFF_APP

RADIO

29/11 2000x45

民間 civil

9999

280@1KT

29.76

RJFS 211200Z 28001KT CAVOK 18/08 Q1008

RJFA / Ashiya

RJFF_APP

TOWER

12/30 1640x46

自衛隊 military

過去5時間に発表されたMETARがありません。

RJDB / Iki

RJFF_APP

REMOTE

20/02 1200x30

民間 civil

過去5時間に発表されたMETARがありません。

RJFO / Oita
VMC

RJFO_APP

TOWER

01/19 3000x45

民間 civil

9999

300@8KT

29.73

RJFO 211200Z 30008KT CAVOK 18/05 Q1007

RJFU / Nagasaki
VMC

RJFU_APP

TOWER

32/14 3000x60

民間 civil

9999

300@4KT

29.76

RJFU 211200Z 30004KT CAVOK 17/11 Q1008

RJDU / Omura

RJFU_APP

TOWER

18/36 1200x30

自衛隊 military

過去5時間に発表されたMETARがありません。

RJFE / Fukue
VMC

NO RADAR

RADIO

03/21 2000x45

民間 civil

9999

330@8KT

29.73

RJFE 211000Z 33008KT 280V010 CAVOK 19/07 Q1007

RJDO / Ojika

NO RADAR

REMOTE

03/21 800x30

民間 civil

過去5時間に発表されたMETARがありません。

RJDK / Kamigoto
VMC

NO RADAR

REMOTE

17/35 800x30

民間 civil

9999

280@9KT

29.76

RJDK 211200Z AUTO 28009KT 9999 NCD 18/12 Q1008

RJDA / Amakusa

NO RADAR

Flight Service

31/13 1000x30

民間 civil

過去5時間に発表されたMETARがありません。

RJFT / Kumamoto
VMC

RJFT_APP

TOWER

07/25 3000x45

民間 civil

9999

330@4KT

29.79

RJFT 211200Z 33004KT 280V010 CAVOK 15/03 Q1009

RJFN / Nyutabaru

RJFM_APP

TOWER

28/10 2701x46

自衛隊 military

過去5時間に発表されたMETARがありません。

RJFM / Miyazaki
VMC

RJFM_APP

TOWER

27/09 2500x45

民間 civil

9999

250@4KT

29.70

RJFM 211200Z 25004KT 9999 FEW035 20/15 Q1006

RJFK / Kagoshima
VMC

RJFK_APP

TOWER

34/16 3000x45

民間 civil

9999

340@7KT

29.76

RJFK 211200Z 34007KT 9999 FEW040 15/09 Q1008 RMK 1CU040 A2977

RJFY / Kanoya
VMC

RJFY_APP

TOWER

26L/08R 2250x45
26R/08L 1200x40

自衛隊 military

9999

310@3KT

29.70

RJFY 211137Z 31003KT 260V340 9999 FEW030 19/09 Q1006 RMK 1CU030 A2973

RJFG / Tanegashima
VMC

NO RADAR

RADIO

31/13 2000x45

民間 civil

9999

300@15KT

29.68

RJFG 210900Z 30015KT CAVOK 20/13 Q1005

RJFC / Yakushima

NO RADAR

REMOTE

14/32 1500x45

民間 civil

過去5時間に発表されたMETARがありません。

RJBG Kobe Control

ROAH / Naha
VMC

ROAH_APP

TOWER

36/18 3000x45

共用 dual

9999

020@12KT

29.79

ROAH 211200Z 02012KT 9999 FEW032 22/14 Q1009 RMK 2CU032 A2980

RORA / Aguni

ROAH_APP

REMOTE

01/19 800x25

民間 civil

過去5時間に発表されたMETARがありません。

ROKJ / Kumejima

ROAH_APP

REMOTE

03/21 2000x45

民間 civil

過去5時間に発表されたMETARがありません。

RODN / Kadena
VMC

ROAH_APP

TOWER

05L/23R 3688x91
05R/23L 3688x61

自衛隊 military

9999

010@8KT

29.80

RODN 211156Z AUTO 01008KT 10SM CLR 20/14 A2980 RMK AO2 SLPNO T02020141 10250 20202 52013 $

ROTM / Futenma
VMC

ROAH_APP

TOWER

06/24 2740x45

自衛隊 military

9999

360@8KT

29.82

ROTM 211156Z 36008KT 9999 SKC 23/14 A2982 RMK SLP083 T02330139 10261 20233 53007

RORS / Shimojishima
VMC

RORS_APP

TOWER

17/35 3000x60

民間 civil

9999

020@13KT

29.79

RORS 211000Z 02013KT 9999 SCT036 23/16 Q1009

ROMY / Miyako
VMC

RORS_APP

TOWER

04/22 2000x45

民間 civil

9999

360@6KT

29.79

ROMY 211100Z 36006KT 9999 SCT034 22/16 Q1009

ROIG / New Ishigaki
VMC

RORS_APP

TOWER

22/04 2000x45

民間 civil

9999

360@6KT

29.79

ROIG 211100Z 36006KT 9999 FEW035 22/16 Q1009

RORT / Tarama

RORS_APP

REMOTE

36/18 1500x45

民間 civil

過去5時間に発表されたMETARがありません。

RJKA / Amami
VMC

NO RADAR

RADIO

03/21 2000x45

民間 civil

9999

340@13KT

29.70

RJKA 211000Z 34013KT CAVOK 21/13 Q1006

RJKI / Kikai
VMC

NO RADAR

REMOTE

07/25 1200x30

民間 civil

9999

350@15KT

29.73

RJKI 211200Z AUTO 35015KT 9999 NCD 22/15 Q1007

RJKN / Tokunoshima

NO RADAR

REMOTE

19/01 2000x45

民間 civil

過去5時間に発表されたMETARがありません。

RJKB / Okierabu

NO RADAR

REMOTE

04/22 1350x45

民間 civil

過去5時間に発表されたMETARがありません。

RORY / Yoron
VMC

NO RADAR

REMOTE

32/14 1320x30

民間 civil

9999

010@13KT

29.76

RORY 211200Z AUTO 01013KT 9999 NCD 22/13 Q1008

RORK / Kitadaito
VMC

NO RADAR

REMOTE

03/21 1500x45

民間 civil

9999

340@12KT

29.70

RORK 211200Z AUTO 34012KT 9999 BKN028 23/17 Q1006

ROMD / Minami-daito
VMC

NO RADAR

REMOTE

02/20 1500x45

民間 civil

9999

350@11KT

29.73

ROMD 211200Z AUTO 35011KT 9999 SCT028 22/17 Q1007

ROYN / Yonaguni
VMC

NO RADAR

REMOTE

26/08 2000x45

民間 civil

9999

040@11KT

29.85

ROYN 211200Z AUTO 04011KT 9999 NSC 24/15 Q1011

RORH / Hateruma

NO RADAR

REMOTE

02/20 800x25

民間 civil

過去5時間に発表されたMETARがありません。

ROKR / Kerama

NO RADAR

REMOTE

02/20 800x25

民間 civil

過去5時間に発表されたMETARがありません。